sensor_id;sensor_type;location;lat;lon;timestamp;P1;durP1;ratioP1;P2;durP2;ratioP2
76631;SDS011;65526;48.578;-4.520;2023-05-02T00:01:46;4.35;;;2.35;;
76631;SDS011;65526;48.578;-4.520;2023-05-02T00:04:13;6.93;;;2.53;;
76631;SDS011;65526;48.578;-4.520;2023-05-02T00:06:40;8.38;;;3.05;;
76631;SDS011;65526;48.578;-4.520;2023-05-02T00:09:07;4.65;;;2.17;;
76631;SDS011;65526;48.578;-4.520;2023-05-02T00:11:34;5.30;;;2.53;;
76631;SDS011;65526;48.578;-4.520;2023-05-02T00:14:00;6.10;;;2.47;;
76631;SDS011;65526;48.578;-4.520;2023-05-02T00:16:27;6.13;;;3.30;;
76631;SDS011;65526;48.578;-4.520;2023-05-02T00:18:53;5.68;;;3.70;;
76631;SDS011;65526;48.578;-4.520;2023-05-02T00:21:20;5.32;;;2.53;;
76631;SDS011;65526;48.578;-4.520;2023-05-02T00:23:46;6.75;;;2.40;;
76631;SDS011;65526;48.578;-4.520;2023-05-02T00:26:13;6.25;;;2.67;;
76631;SDS011;65526;48.578;-4.520;2023-05-02T00:28:41;10.57;;;2.35;;
76631;SDS011;65526;48.578;-4.520;2023-05-02T00:31:08;7.00;;;2.67;;
76631;SDS011;65526;48.578;-4.520;2023-05-02T00:33:35;7.97;;;2.47;;
76631;SDS011;65526;48.578;-4.520;2023-05-02T00:36:01;4.47;;;2.63;;
76631;SDS011;65526;48.578;-4.520;2023-05-02T00:38:28;13.10;;;3.10;;
76631;SDS011;65526;48.578;-4.520;2023-05-02T00:40:55;3.45;;;2.15;;
76631;SDS011;65526;48.578;-4.520;2023-05-02T00:43:21;6.70;;;2.78;;
76631;SDS011;65526;48.578;-4.520;2023-05-02T00:45:48;6.68;;;2.80;;
76631;SDS011;65526;48.578;-4.520;2023-05-02T00:48:15;3.58;;;2.50;;
76631;SDS011;65526;48.578;-4.520;2023-05-02T00:50:45;7.40;;;2.45;;
76631;SDS011;65526;48.578;-4.520;2023-05-02T00:53:11;3.85;;;2.20;;
76631;SDS011;65526;48.578;-4.520;2023-05-02T00:55:38;7.15;;;2.33;;
76631;SDS011;65526;48.578;-4.520;2023-05-02T00:58:07;6.15;;;2.30;;
76631;SDS011;65526;48.578;-4.520;2023-05-02T01:00:41;7.05;;;2.70;;
76631;SDS011;65526;48.578;-4.520;2023-05-02T01:05:58;5.05;;;2.10;;
76631;SDS011;65526;48.578;-4.520;2023-05-02T01:08:44;6.45;;;2.63;;
76631;SDS011;65526;48.578;-4.520;2023-05-02T01:14:16;5.45;;;2.70;;
76631;SDS011;65526;48.578;-4.520;2023-05-02T01:16:45;6.78;;;2.88;;
76631;SDS011;65526;48.578;-4.520;2023-05-02T01:19:28;4.07;;;2.47;;
76631;SDS011;65526;48.578;-4.520;2023-05-02T01:22:00;7.20;;;3.00;;
76631;SDS011;65526;48.578;-4.520;2023-05-02T01:25:17;8.52;;;2.95;;
76631;SDS011;65526;48.578;-4.520;2023-05-02T01:27:23;5.70;;;2.75;;
76631;SDS011;65526;48.578;-4.520;2023-05-02T01:30:00;6.57;;;2.55;;
76631;SDS011;65526;48.578;-4.520;2023-05-02T01:32:28;7.32;;;2.85;;
76631;SDS011;65526;48.578;-4.520;2023-05-02T01:34:58;9.27;;;3.10;;
76631;SDS011;65526;48.578;-4.520;2023-05-02T01:37:28;4.35;;;2.40;;
76631;SDS011;65526;48.578;-4.520;2023-05-02T01:39:56;6.57;;;2.58;;
76631;SDS011;65526;48.578;-4.520;2023-05-02T01:42:25;8.00;;;2.67;;
76631;SDS011;65526;48.578;-4.520;2023-05-02T01:44:53;5.88;;;2.55;;
76631;SDS011;65526;48.578;-4.520;2023-05-02T01:47:21;6.60;;;2.65;;
76631;SDS011;65526;48.578;-4.520;2023-05-02T01:49:49;8.60;;;3.00;;
76631;SDS011;65526;48.578;-4.520;2023-05-02T01:52:17;7.53;;;2.40;;
76631;SDS011;65526;48.578;-4.520;2023-05-02T01:57:15;5.60;;;2.72;;
76631;SDS011;65526;48.578;-4.520;2023-05-02T01:59:43;6.30;;;2.90;;
76631;SDS011;65526;48.578;-4.520;2023-05-02T02:02:12;7.68;;;3.33;;
76631;SDS011;65526;48.578;-4.520;2023-05-02T02:04:41;6.53;;;3.10;;
76631;SDS011;65526;48.578;-4.520;2023-05-02T02:07:09;6.70;;;2.80;;
76631;SDS011;65526;48.578;-4.520;2023-05-02T02:09:39;9.77;;;3.00;;
76631;SDS011;65526;48.578;-4.520;2023-05-02T02:12:16;8.00;;;3.85;;
76631;SDS011;65526;48.578;-4.520;2023-05-02T02:14:56;4.80;;;3.10;;
76631;SDS011;65526;48.578;-4.520;2023-05-02T02:18:10;6.53;;;3.97;;
76631;SDS011;65526;48.578;-4.520;2023-05-02T02:20:22;4.45;;;2.80;;
76631;SDS011;65526;48.578;-4.520;2023-05-02T02:22:48;5.78;;;3.05;;
76631;SDS011;65526;48.578;-4.520;2023-05-02T02:25:16;4.82;;;3.30;;
76631;SDS011;65526;48.578;-4.520;2023-05-02T02:27:43;6.15;;;3.15;;
76631;SDS011;65526;48.578;-4.520;2023-05-02T02:30:11;7.90;;;3.80;;
76631;SDS011;65526;48.578;-4.520;2023-05-02T02:32:38;8.93;;;3.63;;
76631;SDS011;65526;48.578;-4.520;2023-05-02T02:35:05;8.68;;;3.28;;
76631;SDS011;65526;48.578;-4.520;2023-05-02T02:37:34;6.93;;;3.78;;
76631;SDS011;65526;48.578;-4.520;2023-05-02T02:40:07;6.22;;;3.45;;
76631;SDS011;65526;48.578;-4.520;2023-05-02T02:42:46;6.43;;;3.55;;
76631;SDS011;65526;48.578;-4.520;2023-05-02T02:45:34;9.27;;;3.65;;
76631;SDS011;65526;48.578;-4.520;2023-05-02T02:53:33;5.80;;;2.80;;
76631;SDS011;65526;48.578;-4.520;2023-05-02T02:56:15;9.45;;;3.05;;
76631;SDS011;65526;48.578;-4.520;2023-05-02T02:58:47;8.50;;;3.60;;
76631;SDS011;65526;48.578;-4.520;2023-05-02T03:01:30;8.23;;;4.05;;
76631;SDS011;65526;48.578;-4.520;2023-05-02T03:03:58;11.70;;;4.35;;
76631;SDS011;65526;48.578;-4.520;2023-05-02T03:06:25;7.68;;;3.67;;
76631;SDS011;65526;48.578;-4.520;2023-05-02T03:08:52;6.75;;;3.60;;
76631;SDS011;65526;48.578;-4.520;2023-05-02T03:11:24;11.18;;;3.15;;
76631;SDS011;65526;48.578;-4.520;2023-05-02T03:13:51;7.72;;;3.60;;
76631;SDS011;65526;48.578;-4.520;2023-05-02T03:16:33;11.05;;;4.03;;
76631;SDS011;65526;48.578;-4.520;2023-05-02T03:19:06;10.93;;;4.68;;
76631;SDS011;65526;48.578;-4.520;2023-05-02T03:21:33;16.90;;;4.45;;
76631;SDS011;65526;48.578;-4.520;2023-05-02T03:24:08;14.15;;;3.65;;
76631;SDS011;65526;48.578;-4.520;2023-05-02T03:26:35;14.75;;;3.83;;
76631;SDS011;65526;48.578;-4.520;2023-05-02T03:29:02;21.20;;;5.25;;
76631;SDS011;65526;48.578;-4.520;2023-05-02T03:31:34;34.75;;;4.90;;
76631;SDS011;65526;48.578;-4.520;2023-05-02T03:34:01;24.33;;;3.95;;
76631;SDS011;65526;48.578;-4.520;2023-05-02T03:36:27;29.25;;;6.25;;
76631;SDS011;65526;48.578;-4.520;2023-05-02T03:38:54;33.47;;;5.38;;
76631;SDS011;65526;48.578;-4.520;2023-05-02T03:41:21;56.35;;;6.75;;
76631;SDS011;65526;48.578;-4.520;2023-05-02T03:43:56;13.55;;;4.78;;
76631;SDS011;65526;48.578;-4.520;2023-05-02T03:46:24;27.35;;;4.95;;
76631;SDS011;65526;48.578;-4.520;2023-05-02T03:48:51;9.52;;;4.00;;
76631;SDS011;65526;48.578;-4.520;2023-05-02T03:51:18;8.10;;;4.00;;
76631;SDS011;65526;48.578;-4.520;2023-05-02T03:53:49;9.93;;;4.40;;
76631;SDS011;65526;48.578;-4.520;2023-05-02T03:56:16;9.43;;;4.03;;
76631;SDS011;65526;48.578;-4.520;2023-05-02T03:58:54;14.10;;;4.40;;
76631;SDS011;65526;48.578;-4.520;2023-05-02T04:03:52;54.80;;;6.80;;
76631;SDS011;65526;48.578;-4.520;2023-05-02T04:08:55;23.35;;;4.70;;
76631;SDS011;65526;48.578;-4.520;2023-05-02T04:11:22;15.25;;;5.03;;
76631;SDS011;65526;48.578;-4.520;2023-05-02T04:13:51;13.27;;;3.45;;
76631;SDS011;65526;48.578;-4.520;2023-05-02T04:16:17;26.17;;;4.32;;
76631;SDS011;65526;48.578;-4.520;2023-05-02T04:18:44;11.98;;;3.70;;
76631;SDS011;65526;48.578;-4.520;2023-05-02T04:21:11;28.55;;;4.00;;
76631;SDS011;65526;48.578;-4.520;2023-05-02T04:23:38;64.72;;;4.32;;
76631;SDS011;65526;48.578;-4.520;2023-05-02T04:26:05;14.35;;;3.50;;
76631;SDS011;65526;48.578;-4.520;2023-05-02T04:28:38;28.35;;;4.28;;
76631;SDS011;65526;48.578;-4.520;2023-05-02T04:31:06;58.17;;;5.03;;
76631;SDS011;65526;48.578;-4.520;2023-05-02T04:33:32;57.20;;;4.90;;
76631;SDS011;65526;48.578;-4.520;2023-05-02T04:35:59;83.82;;;5.75;;
76631;SDS011;65526;48.578;-4.520;2023-05-02T04:38:26;56.97;;;4.70;;
76631;SDS011;65526;48.578;-4.520;2023-05-02T04:40:53;66.43;;;4.38;;
76631;SDS011;65526;48.578;-4.520;2023-05-02T04:43:27;46.45;;;4.25;;
76631;SDS011;65526;48.578;-4.520;2023-05-02T04:45:57;63.38;;;4.32;;
76631;SDS011;65526;48.578;-4.520;2023-05-02T04:48:27;36.28;;;3.53;;
76631;SDS011;65526;48.578;-4.520;2023-05-02T04:50:54;28.90;;;3.80;;
76631;SDS011;65526;48.578;-4.520;2023-05-02T04:53:20;13.25;;;3.25;;
76631;SDS011;65526;48.578;-4.520;2023-05-02T04:55:48;5.85;;;3.33;;
76631;SDS011;65526;48.578;-4.520;2023-05-02T04:58:15;8.30;;;2.90;;
76631;SDS011;65526;48.578;-4.520;2023-05-02T05:00:43;8.30;;;2.85;;
76631;SDS011;65526;48.578;-4.520;2023-05-02T05:03:10;13.45;;;2.78;;
76631;SDS011;65526;48.578;-4.520;2023-05-02T05:05:36;11.32;;;3.03;;
76631;SDS011;65526;48.578;-4.520;2023-05-02T05:08:05;9.45;;;3.17;;
76631;SDS011;65526;48.578;-4.520;2023-05-02T05:13:02;3.13;;;2.17;;
76631;SDS011;65526;48.578;-4.520;2023-05-02T05:15:30;5.30;;;2.53;;
76631;SDS011;65526;48.578;-4.520;2023-05-02T05:17:59;4.38;;;2.25;;
76631;SDS011;65526;48.578;-4.520;2023-05-02T05:20:26;4.80;;;2.42;;
76631;SDS011;65526;48.578;-4.520;2023-05-02T05:22:56;16.95;;;2.65;;
76631;SDS011;65526;48.578;-4.520;2023-05-02T05:25:25;5.72;;;2.85;;
76631;SDS011;65526;48.578;-4.520;2023-05-02T05:27:52;45.20;;;4.15;;
76631;SDS011;65526;48.578;-4.520;2023-05-02T05:30:21;32.40;;;3.20;;
76631;SDS011;65526;48.578;-4.520;2023-05-02T05:32:47;20.10;;;3.70;;
76631;SDS011;65526;48.578;-4.520;2023-05-02T05:35:14;15.45;;;3.63;;
76631;SDS011;65526;48.578;-4.520;2023-05-02T05:37:40;18.33;;;2.45;;
76631;SDS011;65526;48.578;-4.520;2023-05-02T05:40:10;7.28;;;2.40;;
76631;SDS011;65526;48.578;-4.520;2023-05-02T05:42:38;3.38;;;2.28;;
76631;SDS011;65526;48.578;-4.520;2023-05-02T05:45:09;5.13;;;2.92;;
76631;SDS011;65526;48.578;-4.520;2023-05-02T05:47:37;3.55;;;2.25;;
76631;SDS011;65526;48.578;-4.520;2023-05-02T05:50:04;5.75;;;2.50;;
76631;SDS011;65526;48.578;-4.520;2023-05-02T05:52:31;5.13;;;2.13;;
76631;SDS011;65526;48.578;-4.520;2023-05-02T05:55:00;4.22;;;2.50;;
76631;SDS011;65526;48.578;-4.520;2023-05-02T05:57:27;8.55;;;2.47;;
76631;SDS011;65526;48.578;-4.520;2023-05-02T05:59:55;17.42;;;2.53;;
76631;SDS011;65526;48.578;-4.520;2023-05-02T06:02:22;3.88;;;2.15;;
76631;SDS011;65526;48.578;-4.520;2023-05-02T06:04:48;6.60;;;2.40;;
76631;SDS011;65526;48.578;-4.520;2023-05-02T06:07:18;6.00;;;2.13;;
76631;SDS011;65526;48.578;-4.520;2023-05-02T06:09:44;5.22;;;2.30;;
76631;SDS011;65526;48.578;-4.520;2023-05-02T06:12:11;4.75;;;2.60;;
76631;SDS011;65526;48.578;-4.520;2023-05-02T06:14:38;5.72;;;2.50;;
76631;SDS011;65526;48.578;-4.520;2023-05-02T06:17:05;3.60;;;2.38;;
76631;SDS011;65526;48.578;-4.520;2023-05-02T06:19:32;4.18;;;2.65;;
76631;SDS011;65526;48.578;-4.520;2023-05-02T06:21:58;8.07;;;2.53;;
76631;SDS011;65526;48.578;-4.520;2023-05-02T06:24:25;4.97;;;2.75;;
76631;SDS011;65526;48.578;-4.520;2023-05-02T06:26:51;3.53;;;1.98;;
76631;SDS011;65526;48.578;-4.520;2023-05-02T06:29:17;2.88;;;2.05;;
76631;SDS011;65526;48.578;-4.520;2023-05-02T06:31:44;4.63;;;2.30;;
76631;SDS011;65526;48.578;-4.520;2023-05-02T06:34:10;6.57;;;2.40;;
76631;SDS011;65526;48.578;-4.520;2023-05-02T06:36:37;4.22;;;2.60;;
76631;SDS011;65526;48.578;-4.520;2023-05-02T06:39:03;3.97;;;2.47;;
76631;SDS011;65526;48.578;-4.520;2023-05-02T06:41:30;3.17;;;2.30;;
76631;SDS011;65526;48.578;-4.520;2023-05-02T06:43:56;4.10;;;2.22;;
76631;SDS011;65526;48.578;-4.520;2023-05-02T06:46:22;3.88;;;2.40;;
76631;SDS011;65526;48.578;-4.520;2023-05-02T06:48:49;5.03;;;3.03;;
76631;SDS011;65526;48.578;-4.520;2023-05-02T06:51:17;3.72;;;2.25;;
76631;SDS011;65526;48.578;-4.520;2023-05-02T06:53:44;8.48;;;2.45;;
76631;SDS011;65526;48.578;-4.520;2023-05-02T06:56:10;4.55;;;2.95;;
76631;SDS011;65526;48.578;-4.520;2023-05-02T06:58:36;6.18;;;3.05;;
76631;SDS011;65526;48.578;-4.520;2023-05-02T07:01:03;4.93;;;3.13;;
76631;SDS011;65526;48.578;-4.520;2023-05-02T07:03:29;8.32;;;3.05;;
76631;SDS011;65526;48.578;-4.520;2023-05-02T07:05:55;6.85;;;3.08;;
76631;SDS011;65526;48.578;-4.520;2023-05-02T07:08:22;9.68;;;2.65;;
76631;SDS011;65526;48.578;-4.520;2023-05-02T07:10:49;7.60;;;3.03;;
76631;SDS011;65526;48.578;-4.520;2023-05-02T07:13:15;6.72;;;3.40;;
76631;SDS011;65526;48.578;-4.520;2023-05-02T07:15:42;8.32;;;3.80;;
76631;SDS011;65526;48.578;-4.520;2023-05-02T07:18:08;7.45;;;3.53;;
76631;SDS011;65526;48.578;-4.520;2023-05-02T07:20:34;9.60;;;3.33;;
76631;SDS011;65526;48.578;-4.520;2023-05-02T07:23:01;5.85;;;3.50;;
76631;SDS011;65526;48.578;-4.520;2023-05-02T07:25:27;8.73;;;3.97;;
76631;SDS011;65526;48.578;-4.520;2023-05-02T07:27:54;11.85;;;3.50;;
76631;SDS011;65526;48.578;-4.520;2023-05-02T07:30:20;9.85;;;3.28;;
76631;SDS011;65526;48.578;-4.520;2023-05-02T07:32:46;8.88;;;3.08;;
76631;SDS011;65526;48.578;-4.520;2023-05-02T07:35:13;7.00;;;3.08;;
76631;SDS011;65526;48.578;-4.520;2023-05-02T07:37:39;7.20;;;3.35;;
76631;SDS011;65526;48.578;-4.520;2023-05-02T07:40:06;13.00;;;4.60;;
76631;SDS011;65526;48.578;-4.520;2023-05-02T07:42:34;8.07;;;3.40;;
76631;SDS011;65526;48.578;-4.520;2023-05-02T07:45:01;6.95;;;3.25;;
76631;SDS011;65526;48.578;-4.520;2023-05-02T07:47:27;7.18;;;3.28;;
76631;SDS011;65526;48.578;-4.520;2023-05-02T07:49:54;4.35;;;2.40;;
76631;SDS011;65526;48.578;-4.520;2023-05-02T07:52:21;5.57;;;2.90;;
76631;SDS011;65526;48.578;-4.520;2023-05-02T07:54:47;5.05;;;2.70;;
76631;SDS011;65526;48.578;-4.520;2023-05-02T07:57:14;7.38;;;3.00;;
76631;SDS011;65526;48.578;-4.520;2023-05-02T07:59:41;8.43;;;2.67;;
76631;SDS011;65526;48.578;-4.520;2023-05-02T08:02:07;7.38;;;2.53;;
76631;SDS011;65526;48.578;-4.520;2023-05-02T08:04:33;4.43;;;2.00;;
76631;SDS011;65526;48.578;-4.520;2023-05-02T08:07:00;4.68;;;2.25;;
76631;SDS011;65526;48.578;-4.520;2023-05-02T08:09:26;4.07;;;1.85;;
76631;SDS011;65526;48.578;-4.520;2023-05-02T08:11:52;7.40;;;2.08;;
76631;SDS011;65526;48.578;-4.520;2023-05-02T08:14:19;7.28;;;2.10;;
76631;SDS011;65526;48.578;-4.520;2023-05-02T08:16:45;7.07;;;2.28;;
76631;SDS011;65526;48.578;-4.520;2023-05-02T08:19:12;5.70;;;2.25;;
76631;SDS011;65526;48.578;-4.520;2023-05-02T08:21:38;5.03;;;2.55;;
76631;SDS011;65526;48.578;-4.520;2023-05-02T08:24:04;4.55;;;2.60;;
76631;SDS011;65526;48.578;-4.520;2023-05-02T08:26:31;6.57;;;2.20;;
76631;SDS011;65526;48.578;-4.520;2023-05-02T08:28:58;6.95;;;2.97;;
76631;SDS011;65526;48.578;-4.520;2023-05-02T08:31:24;7.20;;;2.50;;
76631;SDS011;65526;48.578;-4.520;2023-05-02T08:33:50;5.00;;;2.53;;
76631;SDS011;65526;48.578;-4.520;2023-05-02T08:36:17;3.80;;;1.70;;
76631;SDS011;65526;48.578;-4.520;2023-05-02T08:38:44;3.22;;;1.70;;
76631;SDS011;65526;48.578;-4.520;2023-05-02T08:41:15;3.67;;;2.05;;
76631;SDS011;65526;48.578;-4.520;2023-05-02T08:43:47;6.88;;;1.35;;
76631;SDS011;65526;48.578;-4.520;2023-05-02T08:46:14;3.97;;;1.75;;
76631;SDS011;65526;48.578;-4.520;2023-05-02T08:48:42;3.13;;;1.48;;
76631;SDS011;65526;48.578;-4.520;2023-05-02T08:51:11;2.92;;;1.30;;
76631;SDS011;65526;48.578;-4.520;2023-05-02T08:53:40;2.90;;;1.23;;
76631;SDS011;65526;48.578;-4.520;2023-05-02T08:56:07;7.47;;;1.25;;
76631;SDS011;65526;48.578;-4.520;2023-05-02T08:58:35;4.72;;;1.10;;
76631;SDS011;65526;48.578;-4.520;2023-05-02T09:01:05;5.10;;;1.77;;
76631;SDS011;65526;48.578;-4.520;2023-05-02T09:03:35;2.58;;;1.10;;
76631;SDS011;65526;48.578;-4.520;2023-05-02T09:06:03;2.60;;;1.23;;
76631;SDS011;65526;48.578;-4.520;2023-05-02T09:08:32;4.03;;;1.42;;
76631;SDS011;65526;48.578;-4.520;2023-05-02T09:11:00;6.28;;;1.20;;
76631;SDS011;65526;48.578;-4.520;2023-05-02T09:16:10;4.35;;;1.20;;
76631;SDS011;65526;48.578;-4.520;2023-05-02T09:18:43;4.63;;;1.88;;
76631;SDS011;65526;48.578;-4.520;2023-05-02T09:21:12;3.78;;;1.38;;
76631;SDS011;65526;48.578;-4.520;2023-05-02T09:23:41;2.50;;;1.75;;
76631;SDS011;65526;48.578;-4.520;2023-05-02T09:28:38;1.27;;;1.00;;
76631;SDS011;65526;48.578;-4.520;2023-05-02T09:31:15;3.13;;;0.95;;
76631;SDS011;65526;48.578;-4.520;2023-05-02T09:33:43;5.38;;;1.27;;
76631;SDS011;65526;48.578;-4.520;2023-05-02T09:36:11;2.80;;;1.00;;
76631;SDS011;65526;48.578;-4.520;2023-05-02T09:38:42;6.85;;;1.17;;
76631;SDS011;65526;48.578;-4.520;2023-05-02T09:41:09;2.10;;;1.10;;
76631;SDS011;65526;48.578;-4.520;2023-05-02T09:43:36;2.47;;;0.90;;
76631;SDS011;65526;48.578;-4.520;2023-05-02T09:46:04;2.38;;;1.00;;
76631;SDS011;65526;48.578;-4.520;2023-05-02T09:49:08;2.67;;;0.82;;
76631;SDS011;65526;48.578;-4.520;2023-05-02T09:51:27;3.42;;;1.10;;
76631;SDS011;65526;48.578;-4.520;2023-05-02T09:53:54;2.85;;;1.10;;
76631;SDS011;65526;48.578;-4.520;2023-05-02T09:56:20;5.18;;;1.10;;
76631;SDS011;65526;48.578;-4.520;2023-05-02T09:58:47;1.95;;;1.02;;
76631;SDS011;65526;48.578;-4.520;2023-05-02T10:01:14;2.67;;;0.80;;
76631;SDS011;65526;48.578;-4.520;2023-05-02T10:03:41;4.60;;;1.00;;
76631;SDS011;65526;48.578;-4.520;2023-05-02T10:06:12;2.80;;;1.23;;
76631;SDS011;65526;48.578;-4.520;2023-05-02T10:08:40;2.47;;;0.75;;
76631;SDS011;65526;48.578;-4.520;2023-05-02T10:11:07;2.90;;;1.10;;
76631;SDS011;65526;48.578;-4.520;2023-05-02T10:13:35;5.97;;;1.48;;
76631;SDS011;65526;48.578;-4.520;2023-05-02T10:16:04;4.30;;;1.08;;
76631;SDS011;65526;48.578;-4.520;2023-05-02T10:18:42;3.53;;;1.15;;
76631;SDS011;65526;48.578;-4.520;2023-05-02T10:21:18;1.73;;;0.90;;
76631;SDS011;65526;48.578;-4.520;2023-05-02T10:23:50;3.42;;;1.20;;
76631;SDS011;65526;48.578;-4.520;2023-05-02T10:26:18;3.42;;;0.95;;
76631;SDS011;65526;48.578;-4.520;2023-05-02T10:28:48;3.67;;;1.20;;
76631;SDS011;65526;48.578;-4.520;2023-05-02T10:31:17;5.75;;;1.17;;
76631;SDS011;65526;48.578;-4.520;2023-05-02T10:33:43;3.85;;;0.80;;
76631;SDS011;65526;48.578;-4.520;2023-05-02T10:36:15;5.00;;;1.00;;
76631;SDS011;65526;48.578;-4.520;2023-05-02T10:38:46;3.10;;;1.17;;
76631;SDS011;65526;48.578;-4.520;2023-05-02T10:41:15;3.75;;;1.25;;
76631;SDS011;65526;48.578;-4.520;2023-05-02T10:43:47;3.00;;;1.00;;
76631;SDS011;65526;48.578;-4.520;2023-05-02T10:46:57;4.18;;;1.05;;
76631;SDS011;65526;48.578;-4.520;2023-05-02T10:49:11;2.08;;;0.77;;
76631;SDS011;65526;48.578;-4.520;2023-05-02T10:51:39;4.35;;;0.68;;
76631;SDS011;65526;48.578;-4.520;2023-05-02T10:59:38;5.70;;;0.80;;
76631;SDS011;65526;48.578;-4.520;2023-05-02T11:07:34;4.20;;;1.20;;
76631;SDS011;65526;48.578;-4.520;2023-05-02T11:12:43;6.15;;;2.35;;
76631;SDS011;65526;48.578;-4.520;2023-05-02T11:15:59;8.65;;;3.13;;
76631;SDS011;65526;48.578;-4.520;2023-05-02T11:18:09;3.40;;;1.80;;
76631;SDS011;65526;48.578;-4.520;2023-05-02T11:20:40;6.82;;;2.38;;
76631;SDS011;65526;48.578;-4.520;2023-05-02T11:25:41;4.97;;;2.55;;
76631;SDS011;65526;48.578;-4.520;2023-05-02T11:31:05;5.20;;;2.50;;
76631;SDS011;65526;48.578;-4.520;2023-05-02T11:33:33;7.53;;;3.45;;
76631;SDS011;65526;48.578;-4.520;2023-05-02T11:35:59;7.55;;;2.80;;
76631;SDS011;65526;48.578;-4.520;2023-05-02T11:38:27;13.10;;;3.50;;
76631;SDS011;65526;48.578;-4.520;2023-05-02T11:41:01;6.45;;;2.53;;
76631;SDS011;65526;48.578;-4.520;2023-05-02T11:43:29;6.97;;;2.70;;
76631;SDS011;65526;48.578;-4.520;2023-05-02T11:45:55;6.15;;;2.80;;
76631;SDS011;65526;48.578;-4.520;2023-05-02T11:48:24;6.82;;;2.95;;
76631;SDS011;65526;48.578;-4.520;2023-05-02T11:50:58;6.47;;;2.60;;
76631;SDS011;65526;48.578;-4.520;2023-05-02T11:53:30;6.85;;;2.30;;
76631;SDS011;65526;48.578;-4.520;2023-05-02T11:55:57;9.00;;;2.47;;
76631;SDS011;65526;48.578;-4.520;2023-05-02T11:58:26;7.32;;;2.83;;
76631;SDS011;65526;48.578;-4.520;2023-05-02T12:01:12;8.45;;;3.33;;
76631;SDS011;65526;48.578;-4.520;2023-05-02T12:03:40;4.53;;;2.70;;
76631;SDS011;65526;48.578;-4.520;2023-05-02T12:06:10;5.32;;;2.80;;
76631;SDS011;65526;48.578;-4.520;2023-05-02T12:08:38;5.05;;;2.78;;
76631;SDS011;65526;48.578;-4.520;2023-05-02T12:11:06;7.85;;;2.75;;
76631;SDS011;65526;48.578;-4.520;2023-05-02T12:13:32;9.45;;;3.30;;
76631;SDS011;65526;48.578;-4.520;2023-05-02T12:15:59;6.00;;;3.05;;
76631;SDS011;65526;48.578;-4.520;2023-05-02T12:18:26;4.57;;;3.03;;
76631;SDS011;65526;48.578;-4.520;2023-05-02T12:20:53;5.60;;;2.83;;
76631;SDS011;65526;48.578;-4.520;2023-05-02T12:23:22;4.93;;;2.70;;
76631;SDS011;65526;48.578;-4.520;2023-05-02T12:25:51;6.00;;;2.75;;
76631;SDS011;65526;48.578;-4.520;2023-05-02T12:28:18;5.70;;;2.80;;
76631;SDS011;65526;48.578;-4.520;2023-05-02T12:30:46;5.60;;;2.63;;
76631;SDS011;65526;48.578;-4.520;2023-05-02T12:33:13;6.43;;;2.97;;
76631;SDS011;65526;48.578;-4.520;2023-05-02T12:35:41;5.45;;;2.58;;
76631;SDS011;65526;48.578;-4.520;2023-05-02T12:38:09;4.63;;;2.60;;
76631;SDS011;65526;48.578;-4.520;2023-05-02T12:40:46;5.05;;;2.53;;
76631;SDS011;65526;48.578;-4.520;2023-05-02T12:45:48;6.35;;;2.40;;
76631;SDS011;65526;48.578;-4.520;2023-05-02T12:48:25;3.95;;;2.05;;
76631;SDS011;65526;48.578;-4.520;2023-05-02T12:50:53;5.28;;;2.10;;
76631;SDS011;65526;48.578;-4.520;2023-05-02T12:56:09;5.50;;;2.38;;
76631;SDS011;65526;48.578;-4.520;2023-05-02T12:58:45;5.18;;;2.35;;
76631;SDS011;65526;48.578;-4.520;2023-05-02T13:01:13;4.07;;;1.83;;
76631;SDS011;65526;48.578;-4.520;2023-05-02T13:03:45;4.45;;;1.95;;
76631;SDS011;65526;48.578;-4.520;2023-05-02T13:06:12;4.15;;;2.20;;
76631;SDS011;65526;48.578;-4.520;2023-05-02T13:08:39;2.10;;;1.40;;
76631;SDS011;65526;48.578;-4.520;2023-05-02T13:11:05;4.07;;;1.45;;
76631;SDS011;65526;48.578;-4.520;2023-05-02T13:13:31;4.88;;;2.00;;
76631;SDS011;65526;48.578;-4.520;2023-05-02T13:15:59;5.45;;;2.25;;
76631;SDS011;65526;48.578;-4.520;2023-05-02T13:18:26;4.43;;;1.55;;
76631;SDS011;65526;48.578;-4.520;2023-05-02T13:20:52;2.15;;;1.70;;
76631;SDS011;65526;48.578;-4.520;2023-05-02T13:23:19;5.53;;;1.70;;
76631;SDS011;65526;48.578;-4.520;2023-05-02T13:25:45;3.28;;;1.85;;
76631;SDS011;65526;48.578;-4.520;2023-05-02T13:28:12;5.72;;;1.88;;
76631;SDS011;65526;48.578;-4.520;2023-05-02T13:30:38;5.32;;;1.30;;
76631;SDS011;65526;48.578;-4.520;2023-05-02T13:33:04;5.25;;;1.55;;
76631;SDS011;65526;48.578;-4.520;2023-05-02T13:35:31;3.25;;;1.80;;
76631;SDS011;65526;48.578;-4.520;2023-05-02T13:37:57;4.60;;;1.50;;
76631;SDS011;65526;48.578;-4.520;2023-05-02T13:40:23;3.83;;;1.60;;
76631;SDS011;65526;48.578;-4.520;2023-05-02T13:42:50;5.32;;;1.85;;
76631;SDS011;65526;48.578;-4.520;2023-05-02T13:45:16;3.78;;;1.73;;
76631;SDS011;65526;48.578;-4.520;2023-05-02T13:47:43;6.60;;;2.25;;
76631;SDS011;65526;48.578;-4.520;2023-05-02T13:50:09;3.50;;;1.70;;
76631;SDS011;65526;48.578;-4.520;2023-05-02T13:52:36;4.05;;;2.33;;
76631;SDS011;65526;48.578;-4.520;2023-05-02T13:55:02;5.72;;;2.25;;
76631;SDS011;65526;48.578;-4.520;2023-05-02T13:57:29;3.60;;;1.98;;
76631;SDS011;65526;48.578;-4.520;2023-05-02T13:59:56;5.15;;;2.45;;
76631;SDS011;65526;48.578;-4.520;2023-05-02T14:02:22;5.80;;;2.50;;
76631;SDS011;65526;48.578;-4.520;2023-05-02T14:04:49;5.95;;;2.40;;
76631;SDS011;65526;48.578;-4.520;2023-05-02T14:07:15;6.07;;;2.42;;
76631;SDS011;65526;48.578;-4.520;2023-05-02T14:09:41;6.88;;;2.60;;
76631;SDS011;65526;48.578;-4.520;2023-05-02T14:12:09;9.45;;;2.63;;
76631;SDS011;65526;48.578;-4.520;2023-05-02T14:14:36;6.82;;;2.38;;
76631;SDS011;65526;48.578;-4.520;2023-05-02T14:17:03;9.63;;;2.92;;
76631;SDS011;65526;48.578;-4.520;2023-05-02T14:19:30;4.90;;;2.95;;
76631;SDS011;65526;48.578;-4.520;2023-05-02T14:21:57;9.25;;;2.97;;
76631;SDS011;65526;48.578;-4.520;2023-05-02T14:24:23;6.65;;;3.00;;
76631;SDS011;65526;48.578;-4.520;2023-05-02T14:26:49;7.88;;;3.40;;
76631;SDS011;65526;48.578;-4.520;2023-05-02T14:29:16;6.82;;;2.75;;
76631;SDS011;65526;48.578;-4.520;2023-05-02T14:31:43;7.13;;;2.80;;
76631;SDS011;65526;48.578;-4.520;2023-05-02T14:34:10;6.60;;;2.88;;
76631;SDS011;65526;48.578;-4.520;2023-05-02T14:36:37;7.40;;;2.83;;
76631;SDS011;65526;48.578;-4.520;2023-05-02T14:39:04;7.97;;;2.60;;
76631;SDS011;65526;48.578;-4.520;2023-05-02T14:41:30;6.43;;;2.30;;
76631;SDS011;65526;48.578;-4.520;2023-05-02T14:43:57;7.22;;;2.35;;
76631;SDS011;65526;48.578;-4.520;2023-05-02T14:46:23;6.00;;;2.75;;
76631;SDS011;65526;48.578;-4.520;2023-05-02T14:48:49;7.57;;;2.63;;
76631;SDS011;65526;48.578;-4.520;2023-05-02T14:51:15;9.13;;;2.65;;
76631;SDS011;65526;48.578;-4.520;2023-05-02T14:53:42;5.88;;;2.92;;
76631;SDS011;65526;48.578;-4.520;2023-05-02T14:56:12;4.80;;;2.30;;
76631;SDS011;65526;48.578;-4.520;2023-05-02T14:58:40;5.25;;;2.00;;
76631;SDS011;65526;48.578;-4.520;2023-05-02T15:01:13;6.65;;;2.15;;
76631;SDS011;65526;48.578;-4.520;2023-05-02T15:03:41;6.75;;;2.17;;
76631;SDS011;65526;48.578;-4.520;2023-05-02T15:06:07;8.07;;;2.15;;
76631;SDS011;65526;48.578;-4.520;2023-05-02T15:08:34;6.50;;;2.60;;
76631;SDS011;65526;48.578;-4.520;2023-05-02T15:11:00;5.72;;;2.20;;
76631;SDS011;65526;48.578;-4.520;2023-05-02T15:13:27;8.30;;;2.28;;
76631;SDS011;65526;48.578;-4.520;2023-05-02T15:15:53;6.70;;;2.20;;
76631;SDS011;65526;48.578;-4.520;2023-05-02T15:18:20;6.45;;;2.45;;
76631;SDS011;65526;48.578;-4.520;2023-05-02T15:20:46;6.10;;;1.92;;
76631;SDS011;65526;48.578;-4.520;2023-05-02T15:23:13;6.82;;;2.28;;
76631;SDS011;65526;48.578;-4.520;2023-05-02T15:25:39;8.45;;;2.00;;
76631;SDS011;65526;48.578;-4.520;2023-05-02T15:28:05;12.40;;;2.20;;
76631;SDS011;65526;48.578;-4.520;2023-05-02T15:30:32;6.68;;;2.03;;
76631;SDS011;65526;48.578;-4.520;2023-05-02T15:32:59;6.15;;;2.25;;